Time;durP1;ratioP1;P1;durP2;ratioP2;P2;SDS_P1;SDS_P2;PMS_P1;PMS_P2;Temp;Humidity;BMP_temperature;BMP_pressure;BME280_temperature;BME280_humidity;BME280_pressure;Samples;Min_cycle;Max_cycle;Signal;HPM_P1;HPM_P2
2024/03/07 00:03:48;;;;;;;33.50;20.80;;;;;;;3.68;87.56;99331.54;226698;1270;22912;-81
2024/03/07 00:08:54;;;;;;;29.20;19.70;;;;;;;3.68;87.42;99332.25;226823;1273;22549;-80
2024/03/07 00:13:57;;;;;;;28.50;18.40;;;;;;;3.67;87.33;99333.61;226857;1273;22563;-81
2024/03/07 00:19:00;;;;;;;30.50;17.50;;;;;;;3.64;87.16;99328.62;226682;1273;24247;-80
2024/03/07 00:24:05;;;;;;;31.90;18.60;;;;;;;3.61;87.04;99331.31;226806;1267;22534;-81
2024/03/07 00:29:07;;;;;;;29.10;18.20;;;;;;;3.59;86.95;99329.38;226764;1273;22569;-81
2024/03/07 00:34:09;;;;;;;26.60;17.60;;;;;;;3.58;86.90;99326.83;226786;1270;22545;-81
2024/03/07 00:39:20;;;;;;;26.90;16.50;;;;;;;3.59;86.70;99328.14;226806;1273;22542;-80
2024/03/07 00:44:23;;;;;;;28.40;16.70;;;;;;;3.59;86.65;99330.80;226748;1270;22525;-81
2024/03/07 00:49:25;;;;;;;33.50;19.70;;;;;;;3.60;86.60;99330.02;226805;1273;22629;-80
2024/03/07 00:54:27;;;;;;;29.70;19.10;;;;;;;3.60;86.64;99328.57;226560;1273;149402;-82
2024/03/07 00:59:29;;;;;;;32.20;20.30;;;;;;;3.58;86.54;99322.99;226778;1270;22536;-80
2024/03/07 01:04:33;;;;;;;29.40;18.10;;;;;;;3.57;86.58;99323.46;226777;1270;24906;-81
2024/03/07 01:09:35;;;;;;;32.00;19.90;;;;;;;3.54;86.71;99321.23;226817;1273;24891;-81
2024/03/07 01:14:37;;;;;;;31.00;20.30;;;;;;;3.55;86.59;99317.89;226771;1267;22538;-81
2024/03/07 01:19:40;;;;;;;35.20;21.10;;;;;;;3.54;86.34;99320.20;226904;1270;25530;-81
2024/03/07 01:24:42;;;;;;;33.00;19.30;;;;;;;3.52;86.27;99315.20;226845;1273;25047;-81
2024/03/07 01:29:44;;;;;;;30.30;18.30;;;;;;;3.49;86.24;99314.34;226826;1273;22642;-81
2024/03/07 01:34:46;;;;;;;30.00;19.30;;;;;;;3.51;86.09;99315.58;226861;1273;22532;-81
2024/03/07 01:39:48;;;;;;;31.20;19.50;;;;;;;3.50;86.10;99315.47;226907;1273;22537;-80
2024/03/07 01:44:51;;;;;;;29.00;18.20;;;;;;;3.49;86.06;99314.52;226876;1270;22566;-81
2024/03/07 01:49:53;;;;;;;29.20;17.40;;;;;;;3.47;85.95;99311.90;226804;1273;24382;-80
2024/03/07 01:54:56;;;;;;;30.70;18.60;;;;;;;3.43;85.75;99309.45;226910;1273;22535;-80
2024/03/07 02:00:06;;;;;;;29.30;18.20;;;;;;;3.41;85.77;99311.20;226989;1270;25328;-81
2024/03/07 02:05:08;;;;;;;29.40;18.20;;;;;;;3.43;85.95;99306.70;226838;1267;22520;-80
2024/03/07 02:10:10;;;;;;;31.10;19.30;;;;;;;3.42;85.84;99302.93;226869;1273;22592;-80
2024/03/07 02:15:13;;;;;;;31.60;19.50;;;;;;;3.40;85.57;99302.28;226900;1273;22552;-80
2024/03/07 02:20:16;;;;;;;30.90;17.20;;;;;;;3.39;85.48;99301.33;226841;1268;22537;-80
2024/03/07 02:25:18;;;;;;;31.10;19.40;;;;;;;3.38;85.63;99303.52;226927;1273;22627;-79
2024/03/07 02:30:20;;;;;;;32.40;18.00;;;;;;;3.37;85.64;99307.56;226854;1273;25421;-80
2024/03/07 02:35:22;;;;;;;37.00;19.70;;;;;;;3.36;85.76;99306.44;226931;1273;22537;-80
2024/03/07 02:40:25;;;;;;;29.40;18.10;;;;;;;3.36;85.72;99303.81;226957;1271;24209;-80
2024/03/07 02:45:27;;;;;;;30.40;17.00;;;;;;;3.35;85.68;99302.00;226811;1267;25487;-80
2024/03/07 02:50:30;;;;;;;34.70;19.90;;;;;;;3.34;85.50;99297.20;226964;1273;22531;-80
2024/03/07 02:55:32;;;;;;;36.50;21.50;;;;;;;3.35;85.51;99300.08;226880;1273;22557;-81
2024/03/07 03:00:34;;;;;;;41.90;23.00;;;;;;;3.36;85.69;99298.97;226927;1270;22548;-80
2024/03/07 03:05:36;;;;;;;38.70;23.50;;;;;;;3.31;85.40;99300.97;226908;1270;22515;-81
2024/03/07 03:10:38;;;;;;;35.00;20.80;;;;;;;3.24;85.26;99302.08;226889;1270;24264;-81
2024/03/07 03:15:40;;;;;;;38.50;23.20;;;;;;;3.21;85.23;99301.15;226885;1272;22578;-81
2024/03/07 03:20:43;;;;;;;42.20;25.20;;;;;;;3.20;85.26;99303.11;226862;1270;22537;-81
2024/03/07 03:25:48;;;;;;;41.90;24.50;;;;;;;3.18;85.24;99303.90;226785;1270;22537;-80
2024/03/07 03:30:51;;;;;;;39.00;22.20;;;;;;;3.19;85.34;99306.95;226976;1273;22626;-81
2024/03/07 03:35:55;;;;;;;38.20;23.50;;;;;;;3.18;85.11;99299.06;226869;1270;22554;-80
2024/03/07 03:40:57;;;;;;;34.80;22.00;;;;;;;3.15;85.03;99298.92;226836;1271;22540;-81
2024/03/07 03:45:59;;;;;;;32.30;20.90;;;;;;;3.12;84.96;99298.52;226889;1268;22527;-80
2024/03/07 03:51:01;;;;;;;36.10;21.00;;;;;;;3.11;84.83;99299.88;226860;1267;22545;-80
2024/03/07 03:56:07;;;;;;;34.50;21.00;;;;;;;3.14;85.15;99303.59;226825;1273;22542;-80
2024/03/07 04:01:12;;;;;;;35.00;21.40;;;;;;;3.14;85.09;99301.80;226876;1270;22535;-80
2024/03/07 04:06:15;;;;;;;30.60;19.80;;;;;;;3.10;84.89;99305.32;226892;1270;22539;-80
2024/03/07 04:11:17;;;;;;;32.30;20.60;;;;;;;3.06;84.76;99312.43;226802;1270;22530;-79
2024/03/07 04:16:19;;;;;;;32.00;20.10;;;;;;;2.99;84.49;99317.23;226926;1268;22570;-80
2024/03/07 04:21:21;;;;;;;30.70;19.10;;;;;;;2.94;84.62;99319.03;226893;1270;23793;-78
2024/03/07 04:26:23;;;;;;;32.10;20.70;;;;;;;2.88;84.28;99317.79;226964;1273;22524;-80
2024/03/07 04:31:26;;;;;;;30.00;18.10;;;;;;;2.83;84.14;99318.03;226771;1270;22538;-80
2024/03/07 04:36:28;;;;;;;30.70;19.00;;;;;;;2.80;84.40;99321.70;226896;1270;22554;-79
2024/03/07 04:41:31;;;;;;;29.60;18.30;;;;;;;2.79;84.15;99322.02;226984;1270;22547;-80
2024/03/07 04:46:33;;;;;;;28.30;17.50;;;;;;;2.75;83.93;99316.92;226938;1270;22533;-80
2024/03/07 04:51:35;;;;;;;30.00;17.80;;;;;;;2.70;83.72;99325.70;226904;1271;22571;-80
2024/03/07 04:56:40;;;;;;;24.40;16.90;;;;;;;2.63;83.78;99330.42;226876;1267;22562;-80
2024/03/07 05:01:44;;;;;;;29.00;17.80;;;;;;;2.61;83.97;99328.70;226814;1270;22551;-79
2024/03/07 05:06:48;;;;;;;22.90;14.50;;;;;;;2.58;83.75;99337.81;226940;1270;24256;-80
2024/03/07 05:11:52;;;;;;;24.70;16.70;;;;;;;2.53;83.75;99335.42;226888;1273;22566;-79
2024/03/07 05:17:08;;;;;;;25.50;16.90;;;;;;;2.52;83.80;99341.61;226866;1273;24435;-80
2024/03/07 05:22:15;;;;;;;30.20;18.10;;;;;;;2.49;83.46;99342.90;226896;1270;25275;-81
2024/03/07 05:27:17;;;;;;;26.00;16.80;;;;;;;2.47;83.75;99349.64;226967;1267;22530;-80
2024/03/07 05:32:20;;;;;;;27.30;17.60;;;;;;;2.47;83.58;99354.52;226949;1272;25403;-81
2024/03/07 05:37:23;;;;;;;29.10;17.40;;;;;;;2.47;83.84;99356.23;226842;1272;22566;-81
2024/03/07 05:42:25;;;;;;;27.90;18.90;;;;;;;2.46;83.74;99356.82;226757;1273;22526;-81
2024/03/07 05:47:27;;;;;;;30.90;19.40;;;;;;;2.36;83.23;99363.69;226891;1272;22530;-80
2024/03/07 05:52:29;;;;;;;30.20;19.60;;;;;;;2.33;83.48;99365.76;226901;1268;22554;-80
2024/03/07 05:57:31;;;;;;;34.70;20.70;;;;;;;2.28;83.56;99367.33;226956;1272;22520;-81
2024/03/07 06:02:33;;;;;;;33.50;20.60;;;;;;;2.26;83.53;99368.23;226925;1271;22606;-81
2024/03/07 06:07:35;;;;;;;36.10;21.60;;;;;;;2.26;83.64;99372.15;227000;1270;22538;-80
2024/03/07 06:12:40;;;;;;;33.60;21.20;;;;;;;2.25;83.59;99373.46;226937;1254;22532;-79
2024/03/07 06:17:49;;;;;;;34.70;21.50;;;;;;;2.26;83.52;99376.73;226839;1270;22631;-81
2024/03/07 06:22:52;;;;;;;31.40;20.20;;;;;;;2.28;83.47;99380.73;226847;1270;22530;-80
2024/03/07 06:27:56;;;;;;;33.70;22.40;;;;;;;2.28;83.35;99382.25;226874;1270;22663;-80
2024/03/07 06:32:58;;;;;;;33.80;20.60;;;;;;;2.28;83.42;99380.85;226905;1273;22574;-80
2024/03/07 06:38:00;;;;;;;32.90;21.10;;;;;;;2.32;83.30;99382.63;226986;1270;25452;-80
2024/03/07 06:43:03;;;;;;;34.90;21.00;;;;;;;2.34;83.35;99382.14;226944;1271;23001;-80
2024/03/07 06:48:09;;;;;;;34.70;21.80;;;;;;;2.39;83.23;99381.92;226919;1250;26019;-79
2024/03/07 06:53:12;;;;;;;31.90;22.20;;;;;;;2.50;83.71;99392.36;226563;1259;22674;-80
2024/03/07 06:58:14;;;;;;;34.70;22.20;;;;;;;2.61;83.39;99391.32;226681;1250;22550;-81
2024/03/07 07:03:16;;;;;;;31.00;20.00;;;;;;;2.62;82.92;99385.31;226701;1257;22532;-81
2024/03/07 07:08:18;;;;;;;32.70;21.00;;;;;;;2.66;82.71;99387.08;226726;1265;22802;-80
2024/03/07 07:13:20;;;;;;;31.20;19.40;;;;;;;2.69;82.87;99386.42;226719;1253;22531;-86
2024/03/07 07:18:23;;;;;;;29.80;19.30;;;;;;;2.73;82.59;99387.70;226875;1266;22580;-84
2024/03/07 07:23:26;;;;;;;28.50;18.80;;;;;;;2.74;82.44;99387.27;226556;1271;22549;-83
2024/03/07 07:28:28;;;;;;;31.50;20.20;;;;;;;2.78;82.41;99386.60;226624;1254;22534;-83
2024/03/07 07:33:31;;;;;;;31.70;20.70;;;;;;;2.83;82.29;99381.48;226432;1265;22515;-85
2024/03/07 07:38:33;;;;;;;29.00;19.90;;;;;;;2.97;82.53;99382.47;226447;1265;24987;-81
2024/03/07 07:43:35;;;;;;;29.30;18.60;;;;;;;3.15;82.35;99379.38;226508;1265;22534;-82
2024/03/07 07:48:44;;;;;;;30.70;20.80;;;;;;;3.34;81.96;99378.14;226538;1253;22605;-80
2024/03/07 07:53:46;;;;;;;29.70;19.10;;;;;;;3.45;81.80;99379.16;226508;1266;24203;-83
2024/03/07 07:58:48;;;;;;;30.00;20.10;;;;;;;3.53;81.58;99385.30;226602;1265;22685;-80
2024/03/07 08:03:51;;;;;;;32.30;22.00;;;;;;;3.64;81.59;99381.91;226365;1249;24009;-83
2024/03/07 08:08:53;;;;;;;30.60;20.20;;;;;;;3.71;81.33;99387.27;226211;1249;22921;-82
2024/03/07 08:13:55;;;;;;;30.40;20.70;;;;;;;3.73;80.92;99386.33;226363;1271;22537;-82
2024/03/07 08:18:57;;;;;;;32.30;20.00;;;;;;;3.78;81.20;99389.74;226334;1271;22543;-84
2024/03/07 08:24:00;;;;;;;30.10;20.00;;;;;;;3.83;80.49;99389.86;226371;1250;22574;-83
2024/03/07 08:29:02;;;;;;;29.30;19.30;;;;;;;3.88;80.46;99389.73;226421;1255;22562;-83
2024/03/07 08:34:04;;;;;;;30.70;20.90;;;;;;;3.93;80.49;99395.13;226565;1272;22542;-84
2024/03/07 08:39:10;;;;;;;29.20;17.70;;;;;;;4.00;80.31;99398.88;226676;1269;22537;-83
2024/03/07 08:44:13;;;;;;;32.40;22.10;;;;;;;4.07;80.07;99400.05;226619;1262;22540;-81
2024/03/07 08:49:17;;;;;;;30.60;20.50;;;;;;;4.14;79.77;99400.64;226590;1269;22541;-84
2024/03/07 08:54:20;;;;;;;30.40;19.90;;;;;;;4.34;80.00;99400.09;226583;1266;24054;-79
2024/03/07 08:59:22;;;;;;;31.50;20.20;;;;;;;4.42;79.53;99407.81;226601;1265;22560;-82
2024/03/07 09:04:24;;;;;;;29.50;20.40;;;;;;;4.43;79.32;99413.63;226604;1271;22558;-83
2024/03/07 09:09:26;;;;;;;32.60;21.60;;;;;;;4.40;79.14;99415.96;226676;1270;22527;-85
2024/03/07 09:14:29;;;;;;;31.50;20.20;;;;;;;4.49;79.47;99412.17;226506;1268;25355;-81
2024/03/07 09:19:31;;;;;;;31.00;20.90;;;;;;;4.63;79.52;99414.11;226592;1273;24212;-83
2024/03/07 09:24:34;;;;;;;29.50;20.20;;;;;;;4.58;78.61;99416.50;226487;1262;22554;-81
2024/03/07 09:29:37;;;;;;;35.10;22.90;;;;;;;4.52;78.72;99418.24;226314;1265;22540;-79
2024/03/07 09:34:39;;;;;;;30.60;19.80;;;;;;;4.55;78.89;99419.86;226342;1253;22541;-81
2024/03/07 09:39:41;;;;;;;29.40;20.70;;;;;;;4.67;78.83;99422.63;226115;1273;22540;-78
2024/03/07 09:44:46;;;;;;;30.40;20.50;;;;;;;4.80;78.53;99425.02;226268;1270;22551;-79
2024/03/07 09:49:49;;;;;;;28.30;20.30;;;;;;;4.91;78.50;99430.80;226338;1259;24573;-81
2024/03/07 09:54:51;;;;;;;27.60;17.30;;;;;;;4.96;77.82;99432.79;226553;1271;22540;-83
2024/03/07 09:59:54;;;;;;;30.90;20.70;;;;;;;4.94;77.55;99431.54;226527;1256;22530;-77
2024/03/07 10:04:57;;;;;;;27.60;19.70;;;;;;;5.05;77.87;99431.80;226608;1270;22575;-81
2024/03/07 10:10:00;;;;;;;30.30;20.80;;;;;;;5.19;77.98;99432.64;226574;1270;22541;-79
2024/03/07 10:15:03;;;;;;;29.80;19.90;;;;;;;5.26;77.32;99435.70;226612;1266;22535;-82
2024/03/07 10:20:13;;;;;;;31.40;20.90;;;;;;;5.30;76.86;99433.61;226629;1265;22541;-81
2024/03/07 10:25:24;;;;;;;;;;;;;;;5.38;77.04;99425.52;226545;1262;22512;-80
2024/03/07 10:30:27;;;;;;;29.90;21.00;;;;;;;5.49;76.97;99426.23;226574;1265;22539;-80
2024/03/07 10:35:30;;;;;;;32.90;22.00;;;;;;;5.53;76.57;99426.39;226523;1268;22690;-83
2024/03/07 10:40:40;;;;;;;29.70;22.40;;;;;;;5.52;76.40;99433.84;226564;1253;22595;-84
2024/03/07 10:45:48;;;;;;;28.90;20.50;;;;;;;5.52;76.73;99434.90;226378;1254;22892;-82
2024/03/07 10:50:55;;;;;;;31.70;22.10;;;;;;;5.58;76.40;99431.70;226507;1256;24277;-82
2024/03/07 10:56:27;;;;;;;36.90;24.10;;;;;;;5.55;76.18;99435.13;226301;1259;22529;-79
2024/03/07 11:01:34;;;;;;;30.10;18.80;;;;;;;5.51;76.06;99438.34;226327;1265;24248;-77
2024/03/07 11:06:37;;;;;;;31.40;22.10;;;;;;;5.35;75.63;99439.84;226179;1258;22557;-81
2024/03/07 11:11:43;;;;;;;31.90;23.00;;;;;;;5.35;76.27;99433.70;226324;1265;24245;-81
2024/03/07 11:16:46;;;;;;;31.30;22.30;;;;;;;5.36;75.74;99433.59;226518;1261;22558;-82
2024/03/07 11:21:49;;;;;;;36.10;24.20;;;;;;;5.35;75.44;99435.05;226529;1270;22624;-83
2024/03/07 11:26:53;;;;;;;35.50;23.50;;;;;;;5.37;75.49;99431.91;226631;1265;22572;-82
2024/03/07 11:31:55;;;;;;;32.10;23.60;;;;;;;5.48;75.91;99429.82;226501;1259;22537;-82
2024/03/07 11:36:59;;;;;;;34.60;22.60;;;;;;;5.58;75.95;99424.04;226499;1256;22543;-83
2024/03/07 11:42:02;;;;;;;30.00;19.70;;;;;;;5.67;75.93;99424.63;226466;1270;22622;-83
2024/03/07 11:47:08;;;;;;;32.00;22.30;;;;;;;5.74;74.97;99428.85;226376;1270;25278;-83
2024/03/07 11:52:12;;;;;;;39.80;23.70;;;;;;;5.68;75.26;99426.42;226358;1259;22538;-82
2024/03/07 11:57:19;;;;;;;36.00;24.30;;;;;;;5.58;75.29;99427.05;226439;1251;22516;-83
2024/03/07 12:02:22;;;;;;;30.80;22.30;;;;;;;5.54;75.33;99416.34;226712;1251;22547;-81
2024/03/07 12:07:25;;;;;;;31.60;21.00;;;;;;;5.62;75.12;99408.80;226483;1273;23177;-84
2024/03/07 12:12:27;;;;;;;32.70;22.20;;;;;;;5.74;75.05;99416.48;226623;1266;22583;-79
2024/03/07 12:17:31;;;;;;;34.60;24.10;;;;;;;5.85;75.12;99408.61;226532;1269;22515;-79
2024/03/07 12:22:35;;;;;;;34.10;23.90;;;;;;;6.00;74.98;99411.60;226595;1265;22704;-78
2024/03/07 12:27:38;;;;;;;33.50;22.30;;;;;;;5.98;74.37;99411.38;226546;1250;24248;-79
2024/03/07 12:32:47;;;;;;;34.20;23.90;;;;;;;5.88;74.18;99410.80;226534;1254;22549;-80
2024/03/07 12:37:50;;;;;;;35.40;22.10;;;;;;;5.70;74.05;99415.08;226546;1267;22542;-79
2024/03/07 12:42:55;;;;;;;30.30;22.00;;;;;;;5.57;74.43;99413.25;226475;1263;24212;-79
2024/03/07 12:48:04;;;;;;;34.80;22.40;;;;;;;5.53;74.65;99414.05;226538;1259;22552;-82
2024/03/07 12:53:11;;;;;;;;;;;;;;;5.53;74.90;99418.02;226224;1269;317029;-80
2024/03/07 12:58:15;;;;;;;36.80;22.70;;;;;;;5.49;74.80;99417.15;226572;1271;22555;-80
2024/03/07 13:03:17;;;;;;;33.70;22.30;;;;;;;5.44;74.48;99419.95;226535;1265;22571;-83
2024/03/07 13:08:25;;;;;;;29.70;20.80;;;;;;;5.37;74.64;99416.89;226505;1256;22637;-81
2024/03/07 13:13:27;;;;;;;34.90;21.40;;;;;;;5.28;73.73;99425.72;226587;1266;22550;-78
2024/03/07 13:18:33;;;;;;;31.00;21.00;;;;;;;5.20;74.23;99420.40;226567;1269;22539;-81
2024/03/07 13:23:39;;;;;;;32.60;21.20;;;;;;;5.14;74.88;99422.97;226537;1259;25422;-79
2024/03/07 13:28:44;;;;;;;34.50;23.50;;;;;;;5.16;74.92;99423.14;226416;1256;22565;-80
2024/03/07 13:33:46;;;;;;;35.40;21.20;;;;;;;5.16;75.05;99423.38;226559;1255;22537;-79
2024/03/07 13:38:51;;;;;;;31.80;20.80;;;;;;;5.12;74.59;99424.61;226550;1260;22949;-81
2024/03/07 13:43:54;;;;;;;36.00;21.60;;;;;;;5.04;74.30;99422.90;226558;1268;22565;-81
2024/03/07 13:49:06;;;;;;;36.80;23.20;;;;;;;4.96;74.50;99423.58;226557;1268;22624;-81
2024/03/07 13:54:26;;;;;;;37.90;22.80;;;;;;;4.88;74.71;99417.80;226546;1255;24837;-81
2024/03/07 14:00:16;;;;;;;38.30;24.00;;;;;;;4.82;74.82;99413.27;226597;1265;22533;-76
2024/03/07 14:05:52;;;;;;;37.60;22.60;;;;;;;4.82;75.15;99411.23;225782;1256;22511;-78
2024/03/07 14:11:16;;;;;;;39.40;23.50;;;;;;;4.89;75.15;99410.19;226396;1262;25240;-79
2024/03/07 14:17:01;;;;;;;35.40;22.10;;;;;;;5.05;75.18;99409.84;226596;1266;22999;-82
2024/03/07 14:22:12;;;;;;;35.30;21.30;;;;;;;5.22;74.97;99401.52;226428;1254;25352;-81
2024/03/07 14:27:29;;;;;;;33.00;21.00;;;;;;;5.33;74.76;99402.62;226637;1250;22541;-81
2024/03/07 14:32:36;;;;;;;34.40;19.70;;;;;;;5.38;73.95;99401.05;226596;1255;22626;-83
2024/03/07 14:37:50;;;;;;;31.00;19.80;;;;;;;5.43;73.91;99399.40;226624;1254;22582;-82
2024/03/07 14:42:56;;;;;;;25.90;16.40;;;;;;;5.58;73.97;99398.48;226533;1272;22557;-79
2024/03/07 14:47:59;;;;;;;29.40;17.60;;;;;;;5.64;72.92;99402.70;226353;1253;22685;-80
2024/03/07 14:53:03;;;;;;;44.40;28.30;;;;;;;5.56;72.49;99398.33;226413;1269;22550;-82
2024/03/07 14:58:09;;;;;;;21.20;14.00;;;;;;;5.55;72.58;99399.87;226202;1258;23041;-82
2024/03/07 15:03:17;;;;;;;24.60;13.90;;;;;;;5.57;72.40;99398.47;226212;1272;22930;-82
2024/03/07 15:08:22;;;;;;;23.00;14.10;;;;;;;5.52;72.27;99402.00;226509;1271;22542;-82
2024/03/07 15:13:25;;;;;;;26.40;16.80;;;;;;;5.48;72.18;99401.55;226450;1252;22545;-82
2024/03/07 15:18:27;;;;;;;25.50;15.30;;;;;;;5.43;72.08;99395.57;226575;1272;23033;-82
2024/03/07 15:23:30;;;;;;;27.70;16.60;;;;;;;5.34;72.34;99397.42;226757;1273;22557;-82
2024/03/07 15:28:32;;;;;;;24.20;14.10;;;;;;;5.33;72.31;99398.75;226859;1272;23462;-82
2024/03/07 15:33:35;;;;;;;22.20;15.10;;;;;;;5.33;72.82;99398.45;226763;1271;24202;-82
2024/03/07 15:38:38;;;;;;;24.00;15.60;;;;;;;5.27;72.57;99395.02;226882;1272;22550;-84
2024/03/07 15:43:44;;;;;;;25.10;15.90;;;;;;;5.16;72.35;99395.73;226795;1271;22542;-82
2024/03/07 15:48:49;;;;;;;27.40;17.70;;;;;;;5.12;72.75;99404.69;226845;1272;22537;-82
2024/03/07 15:53:54;;;;;;;30.10;17.90;;;;;;;5.10;72.66;99402.80;226714;1271;22966;-82
2024/03/07 15:58:56;;;;;;;25.00;17.30;;;;;;;5.02;72.86;99405.37;226689;1269;22526;-82
2024/03/07 16:03:59;;;;;;;26.20;17.70;;;;;;;4.90;72.92;99404.23;226830;1273;22530;-84
2024/03/07 16:09:01;;;;;;;25.80;17.40;;;;;;;4.82;73.28;99404.20;226749;1272;25932;-82
2024/03/07 16:14:03;;;;;;;25.50;16.30;;;;;;;4.74;73.25;99405.95;226742;1273;22570;-83
2024/03/07 16:19:05;;;;;;;29.40;17.50;;;;;;;4.63;73.42;99412.15;226860;1263;22537;-83
2024/03/07 16:24:08;;;;;;;28.90;18.80;;;;;;;4.51;73.62;99418.27;226786;1270;22530;-82
2024/03/07 16:29:11;;;;;;;32.10;19.40;;;;;;;4.42;73.75;99419.93;226777;1270;24288;-83
2024/03/07 16:34:14;;;;;;;27.50;17.60;;;;;;;4.36;73.87;99421.17;226786;1271;22531;-81
2024/03/07 16:39:17;;;;;;;23.70;15.40;;;;;;;4.34;74.00;99426.27;226853;1269;23003;-82
2024/03/07 16:44:22;;;;;;;26.70;17.70;;;;;;;4.34;73.39;99431.27;226876;1273;22542;-82
2024/03/07 16:49:26;;;;;;;24.30;15.40;;;;;;;4.32;73.28;99432.67;226824;1272;22601;-82
2024/03/07 16:54:28;;;;;;;24.70;14.50;;;;;;;4.29;73.01;99435.23;226840;1272;24524;-81
2024/03/07 16:59:31;;;;;;;24.80;15.90;;;;;;;4.25;73.22;99442.75;226769;1271;22541;-83
2024/03/07 17:04:34;;;;;;;24.20;14.90;;;;;;;4.22;73.06;99444.02;226866;1272;22538;-82
2024/03/07 17:09:36;;;;;;;23.40;15.20;;;;;;;4.17;72.71;99441.85;226869;1272;22538;-82
2024/03/07 17:14:43;;;;;;;25.70;16.70;;;;;;;4.13;72.81;99448.13;226828;1272;22535;-82
2024/03/07 17:19:47;;;;;;;24.20;15.70;;;;;;;4.09;73.11;99455.27;226760;1270;22541;-82
2024/03/07 17:24:49;;;;;;;26.20;16.00;;;;;;;4.06;73.05;99460.73;226743;1273;22537;-82
2024/03/07 17:29:51;;;;;;;24.30;15.20;;;;;;;4.02;73.19;99459.19;226722;1271;22566;-81
2024/03/07 17:34:54;;;;;;;23.20;14.50;;;;;;;4.00;73.17;99466.16;226833;1272;22525;-83
2024/03/07 17:39:56;;;;;;;20.10;14.10;;;;;;;3.95;73.08;99468.11;226757;1273;22538;-83
2024/03/07 17:44:58;;;;;;;20.00;14.00;;;;;;;3.90;73.05;99467.48;226752;1270;22620;-82
2024/03/07 17:50:01;;;;;;;18.50;13.40;;;;;;;3.85;73.47;99471.25;226772;1273;22576;-82
2024/03/07 17:55:07;;;;;;;19.30;13.90;;;;;;;3.81;73.36;99470.70;226732;1273;22542;-82
2024/03/07 18:00:26;;;;;;;19.20;12.90;;;;;;;3.80;73.41;99469.90;226894;1272;22557;-82
2024/03/07 18:05:36;;;;;;;20.00;14.30;;;;;;;3.79;73.40;99475.53;226909;1272;22530;-83
2024/03/07 18:10:39;;;;;;;22.90;14.80;;;;;;;3.77;73.38;99477.67;226759;1271;22589;-83
2024/03/07 18:15:42;;;;;;;22.90;14.50;;;;;;;3.74;73.82;99478.07;226726;1273;22566;-83
2024/03/07 18:20:44;;;;;;;21.40;14.40;;;;;;;3.71;73.69;99479.22;226758;1273;23272;-83
2024/03/07 18:25:48;;;;;;;21.40;15.00;;;;;;;3.70;74.01;99483.86;226841;1273;22542;-82
2024/03/07 18:30:52;;;;;;;26.40;15.90;;;;;;;3.69;74.13;99486.00;226733;1273;22908;-82
2024/03/07 18:35:56;;;;;;;26.40;17.00;;;;;;;3.67;74.26;99487.05;226844;1268;25253;-82
2024/03/07 18:40:59;;;;;;;26.60;17.00;;;;;;;3.69;74.26;99491.27;226862;1273;22554;-82
2024/03/07 18:46:02;;;;;;;25.70;16.20;;;;;;;3.70;74.29;99491.02;226830;1273;24242;-84
2024/03/07 18:51:07;;;;;;;24.90;16.30;;;;;;;3.71;74.18;99487.24;226836;1273;22688;-83
2024/03/07 18:56:10;;;;;;;27.20;17.10;;;;;;;3.71;74.30;99483.89;226886;1273;22535;-82
2024/03/07 19:01:13;;;;;;;26.10;16.80;;;;;;;3.70;74.28;99486.48;226868;1272;22527;-83
2024/03/07 19:06:16;;;;;;;25.00;16.90;;;;;;;3.68;74.44;99490.42;226857;1273;22674;-82
2024/03/07 19:11:19;;;;;;;27.30;16.50;;;;;;;3.66;74.45;99485.23;226909;1270;25396;-83
2024/03/07 19:16:21;;;;;;;25.40;16.10;;;;;;;3.58;74.27;99487.06;226812;1273;22966;-83
2024/03/07 19:21:24;;;;;;;26.80;16.70;;;;;;;3.48;74.25;99487.23;226830;1273;22529;-82
2024/03/07 19:26:27;;;;;;;27.90;18.40;;;;;;;3.42;74.67;99489.11;226978;1273;22565;-82
2024/03/07 19:31:34;;;;;;;29.90;17.50;;;;;;;3.29;74.32;99489.48;226911;1272;22531;-83
2024/03/07 19:36:38;;;;;;;25.40;16.50;;;;;;;3.10;74.37;99490.10;226815;1272;22568;-82
2024/03/07 19:41:44;;;;;;;30.70;19.10;;;;;;;2.94;74.67;99487.10;226874;1273;22619;-83
2024/03/07 19:47:00;;;;;;;38.10;23.20;;;;;;;2.79;74.75;99483.37;226810;1270;22543;-83
2024/03/07 19:52:09;;;;;;;35.20;20.10;;;;;;;2.65;75.35;99484.84;226837;1262;22545;-82
2024/03/07 19:57:12;;;;;;;33.50;23.20;;;;;;;2.53;75.27;99484.75;226909;1273;24229;-83
2024/03/07 20:02:15;;;;;;;40.50;26.80;;;;;;;2.42;75.48;99489.42;226952;1273;22526;-83
2024/03/07 20:07:17;;;;;;;41.70;25.70;;;;;;;2.33;75.75;99488.06;226913;1272;23770;-83
2024/03/07 20:12:20;;;;;;;42.80;27.10;;;;;;;2.23;75.80;99480.89;226842;1270;22244;-83
2024/03/07 20:17:22;;;;;;;43.00;27.30;;;;;;;2.12;76.10;99481.17;226880;1272;25240;-83
2024/03/07 20:22:25;;;;;;;48.50;28.20;;;;;;;1.99;76.27;99488.59;226952;1273;22571;-82
2024/03/07 20:27:29;;;;;;;44.80;26.90;;;;;;;1.87;76.54;99486.07;226817;1273;22612;-82
2024/03/07 20:32:32;;;;;;;42.20;27.20;;;;;;;1.82;76.64;99486.09;226914;1273;22544;-82
2024/03/07 20:37:35;;;;;;;46.00;27.00;;;;;;;1.77;76.91;99482.59;226957;1270;22592;-82
2024/03/07 20:42:38;;;;;;;42.10;25.80;;;;;;;1.74;76.95;99479.58;226897;1268;22524;-82
2024/03/07 20:47:45;;;;;;;41.60;27.10;;;;;;;1.65;76.95;99483.71;226890;1271;23911;-83
2024/03/07 20:52:54;;;;;;;41.30;26.40;;;;;;;1.55;76.95;99482.42;226865;1273;22548;-83
2024/03/07 20:58:00;;;;;;;42.80;25.20;;;;;;;1.45;77.13;99487.16;227040;1270;23040;-82
2024/03/07 21:03:06;;;;;;;41.20;25.20;;;;;;;1.32;77.12;99486.35;226850;1255;22561;-82
2024/03/07 21:08:09;;;;;;;49.50;29.30;;;;;;;1.20;77.24;99489.51;227035;1273;22553;-83
2024/03/07 21:13:13;;;;;;;51.00;31.50;;;;;;;1.09;77.45;99482.50;226974;1270;22537;-84
2024/03/07 21:18:17;;;;;;;51.10;30.20;;;;;;;0.96;77.62;99482.34;227115;1270;23002;-83
2024/03/07 21:23:23;;;;;;;57.40;32.50;;;;;;;0.87;77.75;99479.89;226926;1273;22583;-83
2024/03/07 21:28:26;;;;;;;47.40;29.80;;;;;;;0.78;78.02;99475.87;227056;1273;25375;-82
2024/03/07 21:33:30;;;;;;;45.20;27.80;;;;;;;0.70;78.03;99469.48;226982;1271;22740;-83
2024/03/07 21:38:34;;;;;;;56.10;32.10;;;;;;;0.63;78.47;99471.19;226965;1270;23010;-82
2024/03/07 21:43:36;;;;;;;51.40;31.20;;;;;;;0.56;78.19;99470.47;226984;1272;22569;-83
2024/03/07 21:48:38;;;;;;;52.30;32.10;;;;;;;0.47;78.45;99474.98;227014;1270;22690;-83
2024/03/07 21:53:43;;;;;;;52.30;31.00;;;;;;;0.36;78.54;99471.38;226808;1273;23032;-83
2024/03/07 21:58:46;;;;;;;51.40;30.60;;;;;;;0.26;78.68;99471.21;226962;1273;22541;-82
2024/03/07 22:03:48;;;;;;;55.60;31.80;;;;;;;0.19;78.95;99461.98;226969;1273;24823;-82
2024/03/07 22:08:55;;;;;;;53.50;31.70;;;;;;;0.14;78.96;99460.98;226805;1273;22530;-83
2024/03/07 22:13:59;;;;;;;56.50;33.20;;;;;;;0.09;79.29;99466.52;226888;1267;22616;-83
2024/03/07 22:19:02;;;;;;;55.90;33.30;;;;;;;0.01;79.21;99474.14;226926;1268;22563;-84
2024/03/07 22:24:07;;;;;;;60.10;34.60;;;;;;;-0.08;79.35;99468.05;227001;1273;22541;-83
2024/03/07 22:29:09;;;;;;;58.90;34.20;;;;;;;-0.16;79.53;99459.41;226914;1267;22530;-83
2024/03/07 22:34:16;;;;;;;59.00;33.70;;;;;;;-0.23;79.67;99456.62;227010;1262;22598;-83
2024/03/07 22:39:19;;;;;;;60.90;35.40;;;;;;;-0.31;79.81;99449.86;226895;1270;24190;-83
2024/03/07 22:44:21;;;;;;;69.40;36.90;;;;;;;-0.38;79.94;99446.69;226797;1273;22555;-82
2024/03/07 22:49:23;;;;;;;64.90;36.70;;;;;;;-0.42;80.17;99447.77;227007;1270;26249;-83
2024/03/07 22:54:27;;;;;;;65.70;36.70;;;;;;;-0.46;80.25;99446.36;227000;1273;22562;-83
2024/03/07 22:59:29;;;;;;;64.80;37.70;;;;;;;-0.52;80.19;99454.36;227000;1270;25232;-83
2024/03/07 23:04:31;;;;;;;63.10;36.70;;;;;;;-0.57;80.43;99453.67;227025;1272;24362;-83
2024/03/07 23:09:52;;;;;;;68.20;37.00;;;;;;;-0.63;80.47;99449.08;227042;1270;25233;-82
2024/03/07 23:14:55;;;;;;;60.50;35.60;;;;;;;-0.68;80.52;99449.71;226840;1270;23051;-83
2024/03/07 23:19:57;;;;;;;62.80;35.30;;;;;;;-0.68;80.94;99444.90;226967;1273;25007;-82